Sea Drift — WDC2818 — position and weather

sailwx.info

Track history (hours):
 
Tides and Currents Weather Stations Pressure Air Temp Water Temp Dewpoint Dewpoint Depression Visibility Wind Speed Wind Dir Waves Ship Positions

Sea Drift

Owner: Marquette Transportation Company Gulf-Inland, LLC, Jefferson, LA. More information available from US FCC via Universal Licensing System and Coast Guard Vessel Documentation Center.

Last reported at 2014-Nov-23 23:33 UTC. Time now 2014-Nov-24 20:21 UTC.
Position N 29°34' W 094°56'.

Length 23 m; draft 3 m.

Type: Towing. MMSI: 366998080.

Date/timePositionNaut miles runAvg speedWind from/ knotsBaromVisibWave heightAir tempDewpointWater temp
2014-Nov-23 23:33N 29°34' W 094°56'7 7.0
2014-Nov-23 22:33N 29°41' W 094°59'6 5.8
2014-Nov-23 21:33N 29°45' W 095°04'2 2.2
2014-Nov-23 20:32N 29°47' W 095°04'0 0.0
2014-Nov-23 19:33N 29°47' W 095°04'0 0.0
2014-Nov-23 18:33N 29°47' W 095°04'2 1.6
2014-Nov-23 17:32N 29°46' W 095°06'1 0.5
2014-Nov-23 16:29N 29°45' W 095°06'0 0.0
2014-Nov-23 15:26N 29°45' W 095°06'0 0.0
2014-Nov-23 14:07N 29°45' W 095°06'0 0.0
2014-Nov-23 07:30N 29°45' W 095°06'0 0.0
2014-Nov-22 22:26N 29°45' W 095°06'2 0.6
2014-Nov-22 19:33N 29°47' W 095°04'0 0.2
2014-Nov-22 18:33N 29°47' W 095°04'0 0.3
2014-Nov-22 17:33N 29°47' W 095°04'3 1.5
2014-Nov-22 15:33N 29°45' W 095°06'3 2.2
2014-Nov-22 14:14N 29°47' W 095°04'0 0.2
2014-Nov-22 13:17N 29°47' W 095°04'4 1.1
2014-Nov-22 09:32N 29°44' W 095°07'4 0.4
2014-Nov-21 22:25N 29°47' W 095°04'0 0.0
2014-Nov-21 21:28N 29°47' W 095°04'0 0.0
2014-Nov-21 20:32N 29°47' W 095°04'2 2.1
2014-Nov-21 19:33N 29°46' W 095°06'2 1.9
2014-Nov-21 18:33N 29°45' W 095°04'6 6.5
2014-Nov-21 17:33N 29°40' W 094°59'7 7.1
2014-Nov-21 16:34N 29°34' W 094°55'8 7.4
2014-Nov-21 15:31N 29°27' W 094°51'11 0.4
2014-Nov-20 11:34N 29°17' W 094°56'15 4.7
2014-Nov-20 08:27N 29°32' W 094°54'6 7.2
2014-Nov-20 07:33N 29°37' W 094°57'7 6.9
2014-Nov-20 06:32N 29°44' W 095°01'5 3.9
2014-Nov-20 05:22N 29°46' W 095°06'1 1.5
2014-Nov-20 04:30N 29°47' W 095°05'1 0.9
2014-Nov-20 03:30N 29°46' W 095°05'4 4.7
2014-Nov-20 02:34N 29°43' W 095°01'6 6.4
2014-Nov-20 01:34N 29°38' W 094°58'7 7.2
2014-Nov-20 00:33N 29°31' W 094°53'15 4.8
2014-Nov-19 21:30N 29°17' W 094°57'13 0.6
2014-Nov-18 22:33N 29°30' W 094°52'6 5.8
2014-Nov-18 21:33N 29°35' W 094°56'6 6.1
2014-Nov-18 20:33N 29°40' W 094°59'5 5.3
2014-Nov-18 19:33N 29°44' W 095°03'3 3.3
2014-Nov-18 18:32N 29°47' W 095°04'0 0.0
2014-Nov-18 17:33N 29°47' W 095°04'0 0.1
2014-Nov-18 16:33N 29°47' W 095°04'2 0.8
2014-Nov-18 14:34N 29°46' W 095°06'0 0.1
2014-Nov-18 13:29N 29°46' W 095°06'0 0.3
2014-Nov-18 12:17N 29°45' W 095°06'2 2.6
2014-Nov-18 11:33N 29°47' W 095°04'0 0.3
2014-Nov-18 10:25N 29°47' W 095°04'2 0.9
2014-Nov-18 08:27N 29°46' W 095°05'4 3.3
2014-Nov-18 07:11N 29°45' W 095°10'0 0.2
2014-Nov-18 06:29N 29°45' W 095°10'4 4.8
2014-Nov-18 05:34N 29°46' W 095°05'4 3.6
2014-Nov-18 04:29N 29°44' W 095°01'5 4.5
2014-Nov-18 03:27N 29°45' W 095°06'3 3.0
2014-Nov-18 02:23N 29°45' W 095°10'3 3.1
2014-Nov-18 01:32N 29°44' W 095°07'4 2.9
2014-Nov-18 00:13N 29°47' W 095°04'0 0.2
2014-Nov-17 22:22N 29°47' W 095°04'1 0.8
2014-Nov-17 21:33N 29°48' W 095°04'1 0.8
2014-Nov-17 20:31N 29°47' W 095°05'3 3.5
2014-Nov-17 19:34N 29°44' W 095°03'1 0.8
2014-Nov-17 18:33N 29°44' W 095°02'4 4.1
2014-Nov-17 17:33N 29°47' W 095°04'2 1.5
2014-Nov-17 16:23N 29°46' W 095°06'0 0.5
2014-Nov-17 15:28N 29°45' W 095°06'0 0.4
2014-Nov-17 14:28N 29°46' W 095°06'0 0.0
2014-Nov-17 13:33N 29°46' W 095°06'0 0.0
2014-Nov-16 22:33N 29°46' W 095°06'0 0.2
2014-Nov-16 21:33N 29°46' W 095°06'1 0.4
2014-Nov-16 19:34N 29°46' W 095°06'2 2.0
2014-Nov-16 18:33N 29°47' W 095°04'1 1.3
2014-Nov-16 17:34N 29°46' W 095°04'4 4.5
2014-Nov-16 16:34N 29°42' W 095°01'7 6.7
2014-Nov-16 15:34N 29°36' W 094°57'7 7.2
2014-Nov-16 14:34N 29°30' W 094°52'3 0.1
2014-Nov-14 20:25N 29°28' W 094°51'5 5.9
2014-Nov-14 19:33N 29°32' W 094°54'6 5.9
2014-Nov-14 18:33N 29°37' W 094°57'6 5.7
2014-Nov-14 17:33N 29°42' W 095°01'5 5.3
2014-Nov-14 16:33N 29°46' W 095°05'1 1.3
2014-Nov-14 15:33N 29°47' W 095°04'0 0.2
2014-Nov-14 14:33N 29°47' W 095°04'2 1.1
2014-Nov-14 12:33N 29°46' W 095°06'4 3.4
2014-Nov-14 11:28N 29°45' W 095°10'0 0.4
2014-Nov-14 10:22N 29°45' W 095°10'4 4.9
2014-Nov-14 09:29N 29°46' W 095°05'4 3.0
2014-Nov-14 08:14N 29°44' W 095°01'0 0.0
2014-Nov-14 07:19N 29°44' W 095°01'3 3.4
2014-Nov-14 06:33N 29°45' W 095°04'5 2.7
2014-Nov-14 04:30N 29°45' W 095°10'4 4.1
2014-Nov-14 03:33N 29°46' W 095°06'0 0.0
2014-Nov-14 02:32N 29°46' W 095°06'5 4.9
2014-Nov-14 01:32N 29°45' W 095°11'1 0.8
2014-Nov-14 00:25N 29°44' W 095°12'  
Track history (hours):
 
Tides and Currents Weather Stations Pressure Air Temp Water Temp Dewpoint Dewpoint Depression Visibility Wind Speed Wind Dir Waves Ship Positions

Sea Drift

Owner: Marquette Transportation Company Gulf-Inland, LLC, Jefferson, LA. More information available from US FCC via Universal Licensing System and Coast Guard Vessel Documentation Center.

Last reported at 2014-Nov-23 23:33 UTC. Time now 2014-Nov-24 20:21 UTC.
Position N 29°34' W 094°56'.

Length 23 m; draft 3 m.

Type: Towing. MMSI: 366998080.

Date/timePositionNaut miles runAvg speedWind from/ knotsBaromVisibWave heightAir tempDewpointWater temp
2014-Nov-23 23:33N 29°34' W 094°56'7 7.0
2014-Nov-23 22:33N 29°41' W 094°59'6 5.8
2014-Nov-23 21:33N 29°45' W 095°04'2 2.2
2014-Nov-23 20:32N 29°47' W 095°04'0 0.0
2014-Nov-23 19:33N 29°47' W 095°04'0 0.0
2014-Nov-23 18:33N 29°47' W 095°04'2 1.6
2014-Nov-23 17:32N 29°46' W 095°06'1 0.5
2014-Nov-23 16:29N 29°45' W 095°06'0 0.0
2014-Nov-23 15:26N 29°45' W 095°06'0 0.0
2014-Nov-23 14:07N 29°45' W 095°06'0 0.0
2014-Nov-23 07:30N 29°45' W 095°06'0 0.0
2014-Nov-22 22:26N 29°45' W 095°06'2 0.6
2014-Nov-22 19:33N 29°47' W 095°04'0 0.2
2014-Nov-22 18:33N 29°47' W 095°04'0 0.3
2014-Nov-22 17:33N 29°47' W 095°04'3 1.5
2014-Nov-22 15:33N 29°45' W 095°06'3 2.2
2014-Nov-22 14:14N 29°47' W 095°04'0 0.2
2014-Nov-22 13:17N 29°47' W 095°04'4 1.1
2014-Nov-22 09:32N 29°44' W 095°07'4 0.4
2014-Nov-21 22:25N 29°47' W 095°04'0 0.0
2014-Nov-21 21:28N 29°47' W 095°04'0 0.0
2014-Nov-21 20:32N 29°47' W 095°04'2 2.1
2014-Nov-21 19:33N 29°46' W 095°06'2 1.9
2014-Nov-21 18:33N 29°45' W 095°04'6 6.5
2014-Nov-21 17:33N 29°40' W 094°59'7 7.1
2014-Nov-21 16:34N 29°34' W 094°55'8 7.4
2014-Nov-21 15:31N 29°27' W 094°51'11 0.4
2014-Nov-20 11:34N 29°17' W 094°56'15 4.7
2014-Nov-20 08:27N 29°32' W 094°54'6 7.2
2014-Nov-20 07:33N 29°37' W 094°57'7 6.9
2014-Nov-20 06:32N 29°44' W 095°01'5 3.9
2014-Nov-20 05:22N 29°46' W 095°06'1 1.5
2014-Nov-20 04:30N 29°47' W 095°05'1 0.9
2014-Nov-20 03:30N 29°46' W 095°05'4 4.7
2014-Nov-20 02:34N 29°43' W 095°01'6 6.4
2014-Nov-20 01:34N 29°38' W 094°58'7 7.2
2014-Nov-20 00:33N 29°31' W 094°53'15 4.8
2014-Nov-19 21:30N 29°17' W 094°57'13 0.6
2014-Nov-18 22:33N 29°30' W 094°52'6 5.8
2014-Nov-18 21:33N 29°35' W 094°56'6 6.1
2014-Nov-18 20:33N 29°40' W 094°59'5 5.3
2014-Nov-18 19:33N 29°44' W 095°03'3 3.3
2014-Nov-18 18:32N 29°47' W 095°04'0 0.0
2014-Nov-18 17:33N 29°47' W 095°04'0 0.1
2014-Nov-18 16:33N 29°47' W 095°04'2 0.8
2014-Nov-18 14:34N 29°46' W 095°06'0 0.1
2014-Nov-18 13:29N 29°46' W 095°06'0 0.3
2014-Nov-18 12:17N 29°45' W 095°06'2 2.6
2014-Nov-18 11:33N 29°47' W 095°04'0 0.3
2014-Nov-18 10:25N 29°47' W 095°04'2 0.9
2014-Nov-18 08:27N 29°46' W 095°05'4 3.3
2014-Nov-18 07:11N 29°45' W 095°10'0 0.2
2014-Nov-18 06:29N 29°45' W 095°10'4 4.8
2014-Nov-18 05:34N 29°46' W 095°05'4 3.6
2014-Nov-18 04:29N 29°44' W 095°01'5 4.5
2014-Nov-18 03:27N 29°45' W 095°06'3 3.0
2014-Nov-18 02:23N 29°45' W 095°10'3 3.1
2014-Nov-18 01:32N 29°44' W 095°07'4 2.9
2014-Nov-18 00:13N 29°47' W 095°04'0 0.2
2014-Nov-17 22:22N 29°47' W 095°04'1 0.8
2014-Nov-17 21:33N 29°48' W 095°04'1 0.8
2014-Nov-17 20:31N 29°47' W 095°05'3 3.5
2014-Nov-17 19:34N 29°44' W 095°03'1 0.8
2014-Nov-17 18:33N 29°44' W 095°02'4 4.1
2014-Nov-17 17:33N 29°47' W 095°04'2 1.5
2014-Nov-17 16:23N 29°46' W 095°06'0 0.5
2014-Nov-17 15:28N 29°45' W 095°06'0 0.4
2014-Nov-17 14:28N 29°46' W 095°06'0 0.0
2014-Nov-17 13:33N 29°46' W 095°06'0 0.0
2014-Nov-16 22:33N 29°46' W 095°06'0 0.2
2014-Nov-16 21:33N 29°46' W 095°06'1 0.4
2014-Nov-16 19:34N 29°46' W 095°06'2 2.0
2014-Nov-16 18:33N 29°47' W 095°04'1 1.3
2014-Nov-16 17:34N 29°46' W 095°04'4 4.5
2014-Nov-16 16:34N 29°42' W 095°01'7 6.7
2014-Nov-16 15:34N 29°36' W 094°57'7 7.2
2014-Nov-16 14:34N 29°30' W 094°52'3 0.1
2014-Nov-14 20:25N 29°28' W 094°51'5 5.9
2014-Nov-14 19:33N 29°32' W 094°54'6 5.9
2014-Nov-14 18:33N 29°37' W 094°57'6 5.7
2014-Nov-14 17:33N 29°42' W 095°01'5 5.3
2014-Nov-14 16:33N 29°46' W 095°05'1 1.3
2014-Nov-14 15:33N 29°47' W 095°04'0 0.2
2014-Nov-14 14:33N 29°47' W 095°04'2 1.1
2014-Nov-14 12:33N 29°46' W 095°06'4 3.4
2014-Nov-14 11:28N 29°45' W 095°10'0 0.4
2014-Nov-14 10:22N 29°45' W 095°10'4 4.9
2014-Nov-14 09:29N 29°46' W 095°05'4 3.0
2014-Nov-14 08:14N 29°44' W 095°01'0 0.0
2014-Nov-14 07:19N 29°44' W 095°01'3 3.4
2014-Nov-14 06:33N 29°45' W 095°04'5 2.7
2014-Nov-14 04:30N 29°45' W 095°10'4 4.1
2014-Nov-14 03:33N 29°46' W 095°06'0 0.0
2014-Nov-14 02:32N 29°46' W 095°06'5 4.9
2014-Nov-14 01:32N 29°45' W 095°11'1 0.8
2014-Nov-14 00:25N 29°44' W 095°12'  

Dump ship's entire track history